sensor_id;sensor_type;location;lat;lon;timestamp;P1;durP1;ratioP1;P2;durP2;ratioP2
43793;SDS011;29414;44.798;20.366;2023-09-19T00:01:10;5.13;;;2.45;;
43793;SDS011;29414;44.798;20.366;2023-09-19T00:05:12;10.35;;;2.78;;
43793;SDS011;29414;44.798;20.366;2023-09-19T00:09:12;5.03;;;2.05;;
43793;SDS011;29414;44.798;20.366;2023-09-19T00:13:13;5.25;;;2.60;;
43793;SDS011;29414;44.798;20.366;2023-09-19T00:17:13;6.78;;;2.55;;
43793;SDS011;29414;44.798;20.366;2023-09-19T00:21:16;9.35;;;3.13;;
43793;SDS011;29414;44.798;20.366;2023-09-19T00:25:16;5.42;;;3.16;;
43793;SDS011;29414;44.798;20.366;2023-09-19T00:29:17;9.93;;;2.83;;
43793;SDS011;29414;44.798;20.366;2023-09-19T00:33:18;3.13;;;2.83;;
43793;SDS011;29414;44.798;20.366;2023-09-19T00:37:19;7.25;;;3.10;;
43793;SDS011;29414;44.798;20.366;2023-09-19T00:41:19;3.50;;;2.72;;
43793;SDS011;29414;44.798;20.366;2023-09-19T00:45:20;3.13;;;2.63;;
43793;SDS011;29414;44.798;20.366;2023-09-19T00:49:21;3.53;;;2.33;;
43793;SDS011;29414;44.798;20.366;2023-09-19T00:53:23;5.65;;;2.90;;
43793;SDS011;29414;44.798;20.366;2023-09-19T00:57:25;3.22;;;2.85;;
43793;SDS011;29414;44.798;20.366;2023-09-19T01:01:25;4.80;;;2.72;;
43793;SDS011;29414;44.798;20.366;2023-09-19T01:05:27;3.75;;;2.80;;
43793;SDS011;29414;44.798;20.366;2023-09-19T01:09:27;3.40;;;2.75;;
43793;SDS011;29414;44.798;20.366;2023-09-19T01:13:33;5.25;;;2.90;;
43793;SDS011;29414;44.798;20.366;2023-09-19T01:17:39;3.55;;;3.05;;
43793;SDS011;29414;44.798;20.366;2023-09-19T01:30:09;5.13;;;3.20;;
43793;SDS011;29414;44.798;20.366;2023-09-19T01:34:10;4.85;;;2.83;;
43793;SDS011;29414;44.798;20.366;2023-09-19T01:38:11;4.85;;;3.35;;
43793;SDS011;29414;44.798;20.366;2023-09-19T01:42:14;4.55;;;3.00;;
43793;SDS011;29414;44.798;20.366;2023-09-19T01:46:19;4.32;;;2.60;;
43793;SDS011;29414;44.798;20.366;2023-09-19T01:54:55;4.60;;;2.83;;
43793;SDS011;29414;44.798;20.366;2023-09-19T01:58:57;3.72;;;3.30;;
43793;SDS011;29414;44.798;20.366;2023-09-19T02:02:59;3.88;;;3.00;;
43793;SDS011;29414;44.798;20.366;2023-09-19T02:06:59;6.50;;;3.22;;
43793;SDS011;29414;44.798;20.366;2023-09-19T02:11:00;4.40;;;2.78;;
43793;SDS011;29414;44.798;20.366;2023-09-19T02:15:01;4.45;;;2.83;;
43793;SDS011;29414;44.798;20.366;2023-09-19T02:19:01;3.97;;;3.42;;
43793;SDS011;29414;44.798;20.366;2023-09-19T02:23:06;3.87;;;3.40;;
43793;SDS011;29414;44.798;20.366;2023-09-19T02:27:06;3.50;;;3.13;;
43793;SDS011;29414;44.798;20.366;2023-09-19T02:31:07;4.95;;;3.22;;
43793;SDS011;29414;44.798;20.366;2023-09-19T02:35:08;4.97;;;3.10;;
43793;SDS011;29414;44.798;20.366;2023-09-19T02:39:10;4.18;;;3.42;;
43793;SDS011;29414;44.798;20.366;2023-09-19T02:43:11;4.32;;;3.92;;
43793;SDS011;29414;44.798;20.366;2023-09-19T02:47:11;5.30;;;3.58;;
43793;SDS011;29414;44.798;20.366;2023-09-19T02:51:12;4.15;;;3.67;;
43793;SDS011;29414;44.798;20.366;2023-09-19T02:55:14;5.93;;;4.13;;
43793;SDS011;29414;44.798;20.366;2023-09-19T02:59:17;7.03;;;4.63;;
43793;SDS011;29414;44.798;20.366;2023-09-19T03:03:19;4.97;;;4.05;;
43793;SDS011;29414;44.798;20.366;2023-09-19T03:07:19;6.35;;;4.47;;
43793;SDS011;29414;44.798;20.366;2023-09-19T03:11:20;3.55;;;3.25;;
43793;SDS011;29414;44.798;20.366;2023-09-19T03:15:22;4.85;;;3.88;;
43793;SDS011;29414;44.798;20.366;2023-09-19T03:19:23;4.35;;;3.95;;
43793;SDS011;29414;44.798;20.366;2023-09-19T03:23:23;4.30;;;3.90;;
43793;SDS011;29414;44.798;20.366;2023-09-19T03:27:25;4.72;;;3.72;;
43793;SDS011;29414;44.798;20.366;2023-09-19T03:31:26;3.88;;;3.58;;
43793;SDS011;29414;44.798;20.366;2023-09-19T03:35:26;7.15;;;3.97;;
43793;SDS011;29414;44.798;20.366;2023-09-19T03:39:26;5.00;;;3.60;;
43793;SDS011;29414;44.798;20.366;2023-09-19T03:43:26;5.10;;;3.50;;
43793;SDS011;29414;44.798;20.366;2023-09-19T03:47:27;5.54;;;3.70;;
43793;SDS011;29414;44.798;20.366;2023-09-19T03:51:27;3.63;;;3.15;;
43793;SDS011;29414;44.798;20.366;2023-09-19T03:55:27;5.50;;;3.95;;
43793;SDS011;29414;44.798;20.366;2023-09-19T03:59:28;5.20;;;3.67;;
43793;SDS011;29414;44.798;20.366;2023-09-19T04:03:29;6.68;;;4.00;;
43793;SDS011;29414;44.798;20.366;2023-09-19T04:07:35;4.97;;;3.53;;
43793;SDS011;29414;44.798;20.366;2023-09-19T04:11:35;3.50;;;3.20;;
43793;SDS011;29414;44.798;20.366;2023-09-19T04:15:39;5.57;;;3.33;;
43793;SDS011;29414;44.798;20.366;2023-09-19T04:19:40;4.00;;;3.38;;
43793;SDS011;29414;44.798;20.366;2023-09-19T04:23:41;5.68;;;3.40;;
43793;SDS011;29414;44.798;20.366;2023-09-19T04:27:43;7.18;;;3.92;;
43793;SDS011;29414;44.798;20.366;2023-09-19T04:31:44;4.80;;;4.40;;
43793;SDS011;29414;44.798;20.366;2023-09-19T04:35:48;5.35;;;3.80;;
43793;SDS011;29414;44.798;20.366;2023-09-19T04:39:48;6.80;;;3.85;;
43793;SDS011;29414;44.798;20.366;2023-09-19T04:43:49;4.50;;;4.07;;
43793;SDS011;29414;44.798;20.366;2023-09-19T04:47:50;4.75;;;3.95;;
43793;SDS011;29414;44.798;20.366;2023-09-19T04:51:51;4.88;;;3.83;;
43793;SDS011;29414;44.798;20.366;2023-09-19T04:55:51;6.93;;;4.15;;
43793;SDS011;29414;44.798;20.366;2023-09-19T04:59:52;6.30;;;4.45;;
43793;SDS011;29414;44.798;20.366;2023-09-19T05:03:54;8.52;;;3.50;;
43793;SDS011;29414;44.798;20.366;2023-09-19T05:07:54;5.47;;;4.10;;
43793;SDS011;29414;44.798;20.366;2023-09-19T05:11:55;4.82;;;4.32;;
43793;SDS011;29414;44.798;20.366;2023-09-19T05:15:59;6.05;;;4.20;;
43793;SDS011;29414;44.798;20.366;2023-09-19T05:20:00;4.32;;;3.78;;
43793;SDS011;29414;44.798;20.366;2023-09-19T05:24:05;4.95;;;3.42;;
43793;SDS011;29414;44.798;20.366;2023-09-19T05:28:09;4.05;;;3.60;;
43793;SDS011;29414;44.798;20.366;2023-09-19T05:32:13;6.00;;;4.13;;
43793;SDS011;29414;44.798;20.366;2023-09-19T05:36:14;6.72;;;4.30;;
43793;SDS011;29414;44.798;20.366;2023-09-19T05:40:17;8.32;;;4.28;;
43793;SDS011;29414;44.798;20.366;2023-09-19T05:44:17;5.38;;;4.53;;
43793;SDS011;29414;44.798;20.366;2023-09-19T05:48:17;9.05;;;4.53;;
43793;SDS011;29414;44.798;20.366;2023-09-19T05:52:18;5.03;;;4.50;;
43793;SDS011;29414;44.798;20.366;2023-09-19T05:56:19;5.65;;;4.22;;
43793;SDS011;29414;44.798;20.366;2023-09-19T06:00:20;5.32;;;3.70;;
43793;SDS011;29414;44.798;20.366;2023-09-19T06:04:22;4.47;;;4.07;;
43793;SDS011;29414;44.798;20.366;2023-09-19T06:08:23;7.00;;;4.20;;
43793;SDS011;29414;44.798;20.366;2023-09-19T06:12:23;6.22;;;4.25;;
43793;SDS011;29414;44.798;20.366;2023-09-19T06:16:23;5.97;;;4.35;;
43793;SDS011;29414;44.798;20.366;2023-09-19T06:20:24;8.00;;;3.83;;
43793;SDS011;29414;44.798;20.366;2023-09-19T06:24:28;5.28;;;4.60;;
43793;SDS011;29414;44.798;20.366;2023-09-19T06:28:28;8.57;;;4.75;;
43793;SDS011;29414;44.798;20.366;2023-09-19T06:32:28;7.10;;;4.98;;
43793;SDS011;29414;44.798;20.366;2023-09-19T06:36:28;8.50;;;4.65;;
43793;SDS011;29414;44.798;20.366;2023-09-19T06:40:29;6.95;;;4.88;;
43793;SDS011;29414;44.798;20.366;2023-09-19T06:44:31;6.68;;;5.20;;
43793;SDS011;29414;44.798;20.366;2023-09-19T06:48:32;6.43;;;4.30;;
43793;SDS011;29414;44.798;20.366;2023-09-19T06:52:33;5.55;;;4.70;;
43793;SDS011;29414;44.798;20.366;2023-09-19T06:56:33;5.55;;;4.28;;
43793;SDS011;29414;44.798;20.366;2023-09-19T07:00:34;7.72;;;4.57;;
43793;SDS011;29414;44.798;20.366;2023-09-19T07:04:36;9.00;;;4.88;;
43793;SDS011;29414;44.798;20.366;2023-09-19T07:08:36;13.05;;;4.63;;
43793;SDS011;29414;44.798;20.366;2023-09-19T07:12:38;10.88;;;5.07;;
43793;SDS011;29414;44.798;20.366;2023-09-19T07:16:38;11.57;;;4.15;;
43793;SDS011;29414;44.798;20.366;2023-09-19T07:20:40;14.57;;;4.95;;
43793;SDS011;29414;44.798;20.366;2023-09-19T07:24:45;8.27;;;5.00;;
43793;SDS011;29414;44.798;20.366;2023-09-19T07:28:45;7.03;;;3.90;;
43793;SDS011;29414;44.798;20.366;2023-09-19T07:32:46;7.13;;;5.00;;
43793;SDS011;29414;44.798;20.366;2023-09-19T07:36:46;6.07;;;4.43;;
43793;SDS011;29414;44.798;20.366;2023-09-19T07:40:47;13.00;;;4.43;;
43793;SDS011;29414;44.798;20.366;2023-09-19T07:44:47;12.15;;;4.85;;
43793;SDS011;29414;44.798;20.366;2023-09-19T07:48:50;12.80;;;4.88;;
43793;SDS011;29414;44.798;20.366;2023-09-19T07:52:50;11.00;;;5.20;;
43793;SDS011;29414;44.798;20.366;2023-09-19T07:56:51;11.82;;;4.40;;
43793;SDS011;29414;44.798;20.366;2023-09-19T08:00:51;7.85;;;4.10;;
43793;SDS011;29414;44.798;20.366;2023-09-19T08:04:51;7.05;;;4.25;;
43793;SDS011;29414;44.798;20.366;2023-09-19T08:08:52;9.95;;;4.70;;
43793;SDS011;29414;44.798;20.366;2023-09-19T08:12:53;8.70;;;4.50;;
43793;SDS011;29414;44.798;20.366;2023-09-19T08:16:58;10.52;;;4.38;;
43793;SDS011;29414;44.798;20.366;2023-09-19T08:20:58;11.05;;;6.80;;
43793;SDS011;29414;44.798;20.366;2023-09-19T08:25:00;10.52;;;4.70;;
43793;SDS011;29414;44.798;20.366;2023-09-19T08:29:04;6.20;;;4.30;;
43793;SDS011;29414;44.798;20.366;2023-09-19T08:33:08;7.55;;;4.63;;
43793;SDS011;29414;44.798;20.366;2023-09-19T08:37:08;9.93;;;5.03;;
43793;SDS011;29414;44.798;20.366;2023-09-19T08:41:10;8.15;;;4.35;;
43793;SDS011;29414;44.798;20.366;2023-09-19T08:45:12;10.45;;;5.18;;
43793;SDS011;29414;44.798;20.366;2023-09-19T08:49:16;10.30;;;5.22;;
43793;SDS011;29414;44.798;20.366;2023-09-19T08:57:46;6.55;;;4.63;;
43793;SDS011;29414;44.798;20.366;2023-09-19T09:01:49;7.25;;;4.45;;
43793;SDS011;29414;44.798;20.366;2023-09-19T09:05:51;10.50;;;5.25;;
43793;SDS011;29414;44.798;20.366;2023-09-19T09:09:52;8.35;;;4.53;;
43793;SDS011;29414;44.798;20.366;2023-09-19T09:13:52;10.65;;;4.90;;
43793;SDS011;29414;44.798;20.366;2023-09-19T09:17:52;9.93;;;4.80;;
43793;SDS011;29414;44.798;20.366;2023-09-19T09:21:53;9.70;;;5.18;;
43793;SDS011;29414;44.798;20.366;2023-09-19T09:25:54;16.87;;;4.73;;
43793;SDS011;29414;44.798;20.366;2023-09-19T09:29:54;10.77;;;5.15;;
43793;SDS011;29414;44.798;20.366;2023-09-19T09:33:55;10.65;;;4.82;;
43793;SDS011;29414;44.798;20.366;2023-09-19T09:38:01;7.78;;;4.78;;
43793;SDS011;29414;44.798;20.366;2023-09-19T09:42:08;15.95;;;5.55;;
43793;SDS011;29414;44.798;20.366;2023-09-19T09:50:45;8.00;;;4.65;;
43793;SDS011;29414;44.798;20.366;2023-09-19T09:54:58;5.90;;;4.45;;
43793;SDS011;29414;44.798;20.366;2023-09-19T09:58:59;13.90;;;4.93;;
43793;SDS011;29414;44.798;20.366;2023-09-19T10:02:59;14.00;;;4.95;;
43793;SDS011;29414;44.798;20.366;2023-09-19T10:07:00;8.77;;;4.75;;
43793;SDS011;29414;44.798;20.366;2023-09-19T10:11:15;10.95;;;5.18;;
43793;SDS011;29414;44.798;20.366;2023-09-19T10:15:17;14.93;;;5.28;;
43793;SDS011;29414;44.798;20.366;2023-09-19T10:19:21;21.38;;;6.05;;
43793;SDS011;29414;44.798;20.366;2023-09-19T10:23:24;14.27;;;6.05;;
43793;SDS011;29414;44.798;20.366;2023-09-19T10:27:26;14.23;;;5.25;;
43793;SDS011;29414;44.798;20.366;2023-09-19T10:31:27;10.70;;;5.45;;
43793;SDS011;29414;44.798;20.366;2023-09-19T10:35:28;10.82;;;4.65;;
43793;SDS011;29414;44.798;20.366;2023-09-19T10:39:28;11.25;;;5.03;;
43793;SDS011;29414;44.798;20.366;2023-09-19T10:43:32;11.65;;;5.32;;
43793;SDS011;29414;44.798;20.366;2023-09-19T10:47:32;14.32;;;6.03;;
43793;SDS011;29414;44.798;20.366;2023-09-19T10:51:37;16.10;;;5.33;;
43793;SDS011;29414;44.798;20.366;2023-09-19T10:55:40;19.83;;;5.10;;
43793;SDS011;29414;44.798;20.366;2023-09-19T10:59:42;14.30;;;5.38;;
43793;SDS011;29414;44.798;20.366;2023-09-19T11:04:20;12.77;;;5.38;;
43793;SDS011;29414;44.798;20.366;2023-09-19T11:08:24;15.48;;;5.32;;
43793;SDS011;29414;44.798;20.366;2023-09-19T11:17:22;21.65;;;5.85;;
43793;SDS011;29414;44.798;20.366;2023-09-19T11:29:30;14.00;;;5.30;;
43793;SDS011;29414;44.798;20.366;2023-09-19T11:33:31;14.38;;;5.88;;
43793;SDS011;29414;44.798;20.366;2023-09-19T11:41:37;16.63;;;5.43;;
43793;SDS011;29414;44.798;20.366;2023-09-19T11:49:45;18.15;;;6.68;;
43793;SDS011;29414;44.798;20.366;2023-09-19T11:53:49;16.92;;;6.03;;
43793;SDS011;29414;44.798;20.366;2023-09-19T11:57:49;12.80;;;5.40;;
43793;SDS011;29414;44.798;20.366;2023-09-19T12:01:51;20.13;;;7.35;;
43793;SDS011;29414;44.798;20.366;2023-09-19T12:05:58;15.75;;;6.70;;
43793;SDS011;29414;44.798;20.366;2023-09-19T12:10:05;16.67;;;6.30;;
43793;SDS011;29414;44.798;20.366;2023-09-19T12:14:06;22.42;;;8.20;;
43793;SDS011;29414;44.798;20.366;2023-09-19T12:18:06;22.83;;;6.60;;
43793;SDS011;29414;44.798;20.366;2023-09-19T12:22:07;30.40;;;6.75;;
43793;SDS011;29414;44.798;20.366;2023-09-19T12:26:09;21.13;;;6.75;;
43793;SDS011;29414;44.798;20.366;2023-09-19T12:30:13;22.33;;;6.43;;
43793;SDS011;29414;44.798;20.366;2023-09-19T12:34:20;27.30;;;6.93;;
43793;SDS011;29414;44.798;20.366;2023-09-19T12:38:24;36.50;;;8.00;;
43793;SDS011;29414;44.798;20.366;2023-09-19T12:42:25;22.70;;;6.70;;
43793;SDS011;29414;44.798;20.366;2023-09-19T12:46:29;14.07;;;7.05;;
43793;SDS011;29414;44.798;20.366;2023-09-19T12:50:32;16.27;;;6.15;;
43793;SDS011;29414;44.798;20.366;2023-09-19T12:54:39;13.23;;;6.38;;
43793;SDS011;29414;44.798;20.366;2023-09-19T12:58:53;10.65;;;5.22;;
43793;SDS011;29414;44.798;20.366;2023-09-19T13:03:16;15.88;;;5.47;;
43793;SDS011;29414;44.798;20.366;2023-09-19T13:11:38;15.77;;;5.93;;
43793;SDS011;29414;44.798;20.366;2023-09-19T13:15:52;20.27;;;5.60;;
43793;SDS011;29414;44.798;20.366;2023-09-19T13:19:52;16.77;;;5.55;;
43793;SDS011;29414;44.798;20.366;2023-09-19T13:23:55;19.55;;;6.05;;
43793;SDS011;29414;44.798;20.366;2023-09-19T13:27:59;17.65;;;5.32;;
43793;SDS011;29414;44.798;20.366;2023-09-19T13:32:00;18.30;;;6.15;;
43793;SDS011;29414;44.798;20.366;2023-09-19T13:36:02;20.15;;;6.10;;
43793;SDS011;29414;44.798;20.366;2023-09-19T13:40:02;15.02;;;5.55;;
43793;SDS011;29414;44.798;20.366;2023-09-19T13:44:05;19.95;;;6.13;;
43793;SDS011;29414;44.798;20.366;2023-09-19T13:48:05;19.92;;;6.65;;
43793;SDS011;29414;44.798;20.366;2023-09-19T13:52:05;19.00;;;6.22;;
43793;SDS011;29414;44.798;20.366;2023-09-19T13:56:07;19.95;;;6.40;;
43793;SDS011;29414;44.798;20.366;2023-09-19T14:00:08;22.75;;;5.80;;
43793;SDS011;29414;44.798;20.366;2023-09-19T14:04:10;19.90;;;6.03;;
43793;SDS011;29414;44.798;20.366;2023-09-19T14:08:11;19.77;;;6.30;;
43793;SDS011;29414;44.798;20.366;2023-09-19T14:12:13;18.73;;;5.57;;
43793;SDS011;29414;44.798;20.366;2023-09-19T14:16:13;22.08;;;7.32;;
43793;SDS011;29414;44.798;20.366;2023-09-19T14:20:14;17.23;;;6.03;;
43793;SDS011;29414;44.798;20.366;2023-09-19T14:24:18;24.80;;;5.65;;
43793;SDS011;29414;44.798;20.366;2023-09-19T14:28:18;23.98;;;6.55;;
43793;SDS011;29414;44.798;20.366;2023-09-19T14:32:18;18.27;;;5.53;;
43793;SDS011;29414;44.798;20.366;2023-09-19T14:36:19;16.88;;;4.78;;
43793;SDS011;29414;44.798;20.366;2023-09-19T14:40:19;14.45;;;5.15;;
43793;SDS011;29414;44.798;20.366;2023-09-19T14:44:19;23.80;;;5.65;;
43793;SDS011;29414;44.798;20.366;2023-09-19T14:48:20;21.15;;;5.60;;
43793;SDS011;29414;44.798;20.366;2023-09-19T14:52:22;20.58;;;5.22;;
43793;SDS011;29414;44.798;20.366;2023-09-19T14:56:23;14.23;;;5.55;;
43793;SDS011;29414;44.798;20.366;2023-09-19T15:00:25;14.27;;;4.63;;
43793;SDS011;29414;44.798;20.366;2023-09-19T15:04:27;15.68;;;5.10;;
43793;SDS011;29414;44.798;20.366;2023-09-19T15:08:27;22.25;;;5.15;;
43793;SDS011;29414;44.798;20.366;2023-09-19T15:12:28;15.13;;;5.10;;
43793;SDS011;29414;44.798;20.366;2023-09-19T15:16:29;14.48;;;5.00;;
43793;SDS011;29414;44.798;20.366;2023-09-19T15:20:29;16.38;;;4.22;;
43793;SDS011;29414;44.798;20.366;2023-09-19T15:24:30;16.75;;;4.82;;
43793;SDS011;29414;44.798;20.366;2023-09-19T15:28:30;18.23;;;5.30;;
43793;SDS011;29414;44.798;20.366;2023-09-19T15:32:32;22.17;;;4.82;;
43793;SDS011;29414;44.798;20.366;2023-09-19T15:36:32;14.40;;;4.53;;
43793;SDS011;29414;44.798;20.366;2023-09-19T15:40:32;15.75;;;5.70;;
43793;SDS011;29414;44.798;20.366;2023-09-19T15:44:33;13.02;;;5.00;;
43793;SDS011;29414;44.798;20.366;2023-09-19T15:48:33;22.13;;;5.78;;
43793;SDS011;29414;44.798;20.366;2023-09-19T15:52:34;19.58;;;5.72;;
43793;SDS011;29414;44.798;20.366;2023-09-19T15:56:35;19.23;;;7.00;;
43793;SDS011;29414;44.798;20.366;2023-09-19T16:00:39;14.75;;;6.45;;
43793;SDS011;29414;44.798;20.366;2023-09-19T16:04:40;20.25;;;6.18;;
43793;SDS011;29414;44.798;20.366;2023-09-19T16:08:40;15.95;;;5.63;;
43793;SDS011;29414;44.798;20.366;2023-09-19T16:12:41;15.27;;;4.45;;
43793;SDS011;29414;44.798;20.366;2023-09-19T16:16:41;14.18;;;5.38;;
43793;SDS011;29414;44.798;20.366;2023-09-19T16:20:42;16.00;;;5.28;;
43793;SDS011;29414;44.798;20.366;2023-09-19T16:24:42;18.73;;;4.88;;
43793;SDS011;29414;44.798;20.366;2023-09-19T16:28:44;23.40;;;5.07;;
43793;SDS011;29414;44.798;20.366;2023-09-19T16:32:47;14.65;;;4.28;;
43793;SDS011;29414;44.798;20.366;2023-09-19T16:36:47;12.13;;;4.63;;
43793;SDS011;29414;44.798;20.366;2023-09-19T16:41:06;15.57;;;4.22;;
43793;SDS011;29414;44.798;20.366;2023-09-19T16:45:07;15.55;;;5.07;;
43793;SDS011;29414;44.798;20.366;2023-09-19T16:49:08;13.40;;;5.10;;
43793;SDS011;29414;44.798;20.366;2023-09-19T16:53:09;7.65;;;3.75;;
43793;SDS011;29414;44.798;20.366;2023-09-19T16:57:09;14.15;;;4.47;;
43793;SDS011;29414;44.798;20.366;2023-09-19T17:01:09;13.65;;;5.72;;
43793;SDS011;29414;44.798;20.366;2023-09-19T17:05:10;30.17;;;17.33;;
43793;SDS011;29414;44.798;20.366;2023-09-19T17:09:13;18.02;;;7.55;;
43793;SDS011;29414;44.798;20.366;2023-09-19T17:13:16;21.48;;;10.05;;
43793;SDS011;29414;44.798;20.366;2023-09-19T17:17:16;14.65;;;6.30;;
43793;SDS011;29414;44.798;20.366;2023-09-19T17:21:16;12.95;;;4.75;;
43793;SDS011;29414;44.798;20.366;2023-09-19T17:25:16;14.93;;;4.65;;
43793;SDS011;29414;44.798;20.366;2023-09-19T17:29:17;10.90;;;4.20;;
43793;SDS011;29414;44.798;20.366;2023-09-19T17:33:18;15.27;;;4.60;;
43793;SDS011;29414;44.798;20.366;2023-09-19T17:37:18;14.90;;;3.72;;
43793;SDS011;29414;44.798;20.366;2023-09-19T17:41:19;14.48;;;4.07;;
43793;SDS011;29414;44.798;20.366;2023-09-19T17:45:22;11.95;;;3.88;;
43793;SDS011;29414;44.798;20.366;2023-09-19T17:49:22;8.77;;;3.40;;
43793;SDS011;29414;44.798;20.366;2023-09-19T17:53:22;12.52;;;3.65;;
43793;SDS011;29414;44.798;20.366;2023-09-19T17:57:22;11.75;;;3.45;;
43793;SDS011;29414;44.798;20.366;2023-09-19T18:01:23;11.13;;;2.72;;
43793;SDS011;29414;44.798;20.366;2023-09-19T18:05:25;8.80;;;2.97;;
43793;SDS011;29414;44.798;20.366;2023-09-19T18:09:26;14.52;;;3.85;;
43793;SDS011;29414;44.798;20.366;2023-09-19T18:13:26;14.82;;;3.67;;
43793;SDS011;29414;44.798;20.366;2023-09-19T18:17:27;17.23;;;4.72;;
43793;SDS011;29414;44.798;20.366;2023-09-19T18:21:27;7.23;;;3.80;;
43793;SDS011;29414;44.798;20.366;2023-09-19T18:25:28;16.67;;;5.35;;
43793;SDS011;29414;44.798;20.366;2023-09-19T18:29:28;39.20;;;26.65;;
43793;SDS011;29414;44.798;20.366;2023-09-19T18:33:31;12.35;;;4.93;;
43793;SDS011;29414;44.798;20.366;2023-09-19T18:37:31;9.55;;;3.63;;
43793;SDS011;29414;44.798;20.366;2023-09-19T18:41:32;7.70;;;3.60;;
43793;SDS011;29414;44.798;20.366;2023-09-19T18:45:36;10.43;;;4.00;;
43793;SDS011;29414;44.798;20.366;2023-09-19T18:49:37;7.40;;;3.53;;
43793;SDS011;29414;44.798;20.366;2023-09-19T18:53:37;4.97;;;3.33;;
43793;SDS011;29414;44.798;20.366;2023-09-19T18:57:38;9.98;;;2.95;;
43793;SDS011;29414;44.798;20.366;2023-09-19T19:01:39;3.33;;;2.65;;
43793;SDS011;29414;44.798;20.366;2023-09-19T19:05:39;11.32;;;2.80;;
43793;SDS011;29414;44.798;20.366;2023-09-19T19:09:39;7.70;;;2.75;;
43793;SDS011;29414;44.798;20.366;2023-09-19T19:13:40;5.40;;;2.63;;
43793;SDS011;29414;44.798;20.366;2023-09-19T19:17:43;4.50;;;2.30;;
43793;SDS011;29414;44.798;20.366;2023-09-19T19:21:44;7.53;;;3.15;;
43793;SDS011;29414;44.798;20.366;2023-09-19T19:25:47;7.97;;;3.13;;
43793;SDS011;29414;44.798;20.366;2023-09-19T19:29:48;8.35;;;2.60;;
43793;SDS011;29414;44.798;20.366;2023-09-19T19:33:50;6.88;;;2.42;;
43793;SDS011;29414;44.798;20.366;2023-09-19T19:37:50;5.65;;;2.55;;
43793;SDS011;29414;44.798;20.366;2023-09-19T19:41:51;3.63;;;2.28;;
43793;SDS011;29414;44.798;20.366;2023-09-19T19:45:58;7.05;;;2.05;;
43793;SDS011;29414;44.798;20.366;2023-09-19T19:49:58;6.28;;;2.35;;
43793;SDS011;29414;44.798;20.366;2023-09-19T19:54:00;5.88;;;2.42;;
43793;SDS011;29414;44.798;20.366;2023-09-19T19:58:00;5.53;;;2.95;;
43793;SDS011;29414;44.798;20.366;2023-09-19T20:02:01;8.88;;;3.28;;
43793;SDS011;29414;44.798;20.366;2023-09-19T20:06:01;5.20;;;3.08;;
43793;SDS011;29414;44.798;20.366;2023-09-19T20:10:03;5.07;;;3.30;;
43793;SDS011;29414;44.798;20.366;2023-09-19T20:14:03;7.63;;;4.13;;
43793;SDS011;29414;44.798;20.366;2023-09-19T20:18:08;12.95;;;4.22;;
43793;SDS011;29414;44.798;20.366;2023-09-19T20:22:11;9.77;;;4.20;;
43793;SDS011;29414;44.798;20.366;2023-09-19T20:26:13;10.73;;;4.20;;
43793;SDS011;29414;44.798;20.366;2023-09-19T20:30:13;12.88;;;3.92;;
43793;SDS011;29414;44.798;20.366;2023-09-19T20:34:14;16.40;;;5.70;;
43793;SDS011;29414;44.798;20.366;2023-09-19T20:38:14;8.95;;;5.05;;
43793;SDS011;29414;44.798;20.366;2023-09-19T20:42:14;14.55;;;5.30;;
43793;SDS011;29414;44.798;20.366;2023-09-19T20:46:16;10.18;;;6.20;;
43793;SDS011;29414;44.798;20.366;2023-09-19T20:50:17;14.52;;;5.97;;
43793;SDS011;29414;44.798;20.366;2023-09-19T20:54:18;14.63;;;6.43;;
43793;SDS011;29414;44.798;20.366;2023-09-19T20:58:18;14.27;;;6.88;;
43793;SDS011;29414;44.798;20.366;2023-09-19T21:02:19;10.57;;;6.43;;
43793;SDS011;29414;44.798;20.366;2023-09-19T21:06:19;8.30;;;6.35;;
43793;SDS011;29414;44.798;20.366;2023-09-19T21:10:20;8.52;;;6.13;;
43793;SDS011;29414;44.798;20.366;2023-09-19T21:14:20;12.65;;;6.88;;
43793;SDS011;29414;44.798;20.366;2023-09-19T21:18:20;9.32;;;6.30;;
43793;SDS011;29414;44.798;20.366;2023-09-19T21:22:21;16.00;;;6.90;;
43793;SDS011;29414;44.798;20.366;2023-09-19T21:26:21;8.60;;;6.75;;
43793;SDS011;29414;44.798;20.366;2023-09-19T21:30:21;7.15;;;6.40;;
43793;SDS011;29414;44.798;20.366;2023-09-19T21:34:21;9.74;;;6.62;;
43793;SDS011;29414;44.798;20.366;2023-09-19T21:38:22;11.10;;;6.53;;
43793;SDS011;29414;44.798;20.366;2023-09-19T21:42:22;13.00;;;6.72;;
43793;SDS011;29414;44.798;20.366;2023-09-19T21:46:22;11.10;;;7.40;;
43793;SDS011;29414;44.798;20.366;2023-09-19T21:50:23;12.02;;;7.03;;
43793;SDS011;29414;44.798;20.366;2023-09-19T21:54:25;11.75;;;7.72;;
43793;SDS011;29414;44.798;20.366;2023-09-19T21:58:26;7.95;;;6.10;;
43793;SDS011;29414;44.798;20.366;2023-09-19T22:02:26;8.93;;;6.50;;
43793;SDS011;29414;44.798;20.366;2023-09-19T22:06:27;10.98;;;6.95;;
43793;SDS011;29414;44.798;20.366;2023-09-19T22:10:29;9.07;;;6.07;;
43793;SDS011;29414;44.798;20.366;2023-09-19T22:14:29;7.30;;;4.72;;
43793;SDS011;29414;44.798;20.366;2023-09-19T22:18:30;20.13;;;7.55;;
43793;SDS011;29414;44.798;20.366;2023-09-19T22:22:30;12.68;;;6.28;;
43793;SDS011;29414;44.798;20.366;2023-09-19T22:26:32;9.70;;;5.65;;
43793;SDS011;29414;44.798;20.366;2023-09-19T22:30:39;12.00;;;6.78;;
43793;SDS011;29414;44.798;20.366;2023-09-19T22:34:44;16.63;;;10.93;;
43793;SDS011;29414;44.798;20.366;2023-09-19T22:38:45;18.50;;;13.23;;
43793;SDS011;29414;44.798;20.366;2023-09-19T22:42:45;20.00;;;11.48;;
43793;SDS011;29414;44.798;20.366;2023-09-19T22:46:48;15.68;;;10.73;;
43793;SDS011;29414;44.798;20.366;2023-09-19T22:50:49;13.93;;;8.25;;
43793;SDS011;29414;44.798;20.366;2023-09-19T22:54:52;8.85;;;5.78;;
43793;SDS011;29414;44.798;20.366;2023-09-19T22:58:53;13.25;;;7.50;;
43793;SDS011;29414;44.798;20.366;2023-09-19T23:02:53;17.73;;;9.50;;
43793;SDS011;29414;44.798;20.366;2023-09-19T23:06:55;14.25;;;6.32;;
43793;SDS011;29414;44.798;20.366;2023-09-19T23:11:01;17.05;;;7.20;;
43793;SDS011;29414;44.798;20.366;2023-09-19T23:15:02;14.40;;;5.68;;
43793;SDS011;29414;44.798;20.366;2023-09-19T23:19:03;12.70;;;6.35;;
43793;SDS011;29414;44.798;20.366;2023-09-19T23:23:14;11.90;;;7.40;;
43793;SDS011;29414;44.798;20.366;2023-09-19T23:27:17;13.75;;;7.32;;
43793;SDS011;29414;44.798;20.366;2023-09-19T23:31:24;15.73;;;9.85;;
43793;SDS011;29414;44.798;20.366;2023-09-19T23:35:25;14.08;;;9.98;;
43793;SDS011;29414;44.798;20.366;2023-09-19T23:39:27;14.07;;;8.10;;
43793;SDS011;29414;44.798;20.366;2023-09-19T23:43:27;17.08;;;8.26;;
43793;SDS011;29414;44.798;20.366;2023-09-19T23:47:32;12.82;;;6.75;;
43793;SDS011;29414;44.798;20.366;2023-09-19T23:51:32;11.05;;;6.22;;
43793;SDS011;29414;44.798;20.366;2023-09-19T23:55:35;19.27;;;6.72;;
43793;SDS011;29414;44.798;20.366;2023-09-19T23:59:38;14.55;;;6.70;;
